Time;durP1;ratioP1;P1;durP2;ratioP2;P2;SDS_P1;SDS_P2;PMS_P1;PMS_P2;Temp;Humidity;BMP_temperature;BMP_pressure;BME280_temperature;BME280_humidity;BME280_pressure;Samples;Min_cycle;Max_cycle;Signal;HPM_P1;HPM_P2
2021/09/01 00:00:43;;;;;;;5.43;4.10;;;14.20;99.90;;;;;;5030927;28;20459;-56
2021/09/01 00:03:10;;;;;;;4.20;3.80;;;14.10;99.90;;;;;;5030752;28;21063;-57
2021/09/01 00:05:37;;;;;;;4.80;4.10;;;14.00;99.90;;;;;;5031133;28;20522;-56
2021/09/01 00:08:04;;;;;;;5.97;4.40;;;13.90;99.90;;;;;;5031192;28;20506;-56
2021/09/01 00:10:33;;;;;;;4.93;3.93;;;13.70;99.90;;;;;;5030823;28;20512;-56
2021/09/01 00:13:00;;;;;;;5.30;3.93;;;13.70;99.90;;;;;;5030890;28;20468;-56
2021/09/01 00:15:27;;;;;;;5.83;4.13;;;13.70;99.90;;;;;;5031029;28;20861;-57
2021/09/01 00:17:54;;;;;;;5.63;4.07;;;13.70;99.90;;;;;;5031019;28;20938;-57
2021/09/01 00:20:21;;;;;;;9.20;4.17;;;13.70;99.90;;;;;;5030933;28;20453;-55
2021/09/01 00:22:48;;;;;;;4.73;4.00;;;13.60;99.90;;;;;;5030704;28;20485;-57
2021/09/01 00:25:15;;;;;;;6.20;4.20;;;13.70;99.90;;;;;;5030973;28;20488;-56
2021/09/01 00:27:44;;;;;;;6.10;4.30;;;13.70;99.90;;;;;;5030893;28;20452;-57
2021/09/01 00:30:11;;;;;;;4.27;3.87;;;13.50;99.90;;;;;;5031303;28;20452;-56
2021/09/01 00:32:39;;;;;;;4.00;3.60;;;13.60;99.90;;;;;;5030655;28;21352;-57
2021/09/01 00:35:06;;;;;;;3.87;3.50;;;13.70;99.90;;;;;;5031194;28;20452;-57
2021/09/01 00:37:33;;;;;;;3.97;3.57;;;13.60;99.90;;;;;;5030959;28;20499;-56
2021/09/01 00:40:05;;;;;;;11.00;4.20;;;13.70;99.90;;;;;;5033720;28;20510;-55
2021/09/01 00:42:32;;;;;;;5.97;3.70;;;13.70;99.90;;;;;;5034055;28;20518;-56
2021/09/01 00:45:00;;;;;;;5.77;4.10;;;13.60;99.90;;;;;;5034666;28;20488;-57
2021/09/01 00:47:27;;;;;;;5.00;4.00;;;13.60;99.90;;;;;;5034468;28;20452;-56
2021/09/01 00:49:54;;;;;;;4.03;3.63;;;13.60;99.90;;;;;;5034560;28;20452;-56
2021/09/01 00:52:22;;;;;;;5.10;3.83;;;13.50;99.90;;;;;;5033882;28;20523;-57
2021/09/01 00:54:50;;;;;;;5.40;4.10;;;13.40;99.90;;;;;;5034576;28;20966;-57
2021/09/01 00:57:19;;;;;;;5.30;4.40;;;13.50;99.90;;;;;;5034644;28;20448;-56
2021/09/01 00:59:46;;;;;;;6.33;3.90;;;13.40;99.90;;;;;;5034581;28;20444;-57
2021/09/01 01:02:15;;;;;;;5.30;3.97;;;13.30;99.90;;;;;;5033211;28;20803;-57
2021/09/01 01:04:42;;;;;;;5.03;3.87;;;13.30;99.90;;;;;;5033534;28;20494;-56
2021/09/01 01:07:11;;;;;;;6.00;4.10;;;13.30;99.90;;;;;;5034078;28;20495;-57
2021/09/01 01:09:40;;;;;;;5.30;4.10;;;13.30;99.90;;;;;;5034181;28;20957;-58
2021/09/01 01:12:10;;;;;;;5.23;4.53;;;13.20;99.90;;;;;;5032944;28;20483;-56
2021/09/01 01:14:39;;;;;;;7.33;4.30;;;13.20;99.90;;;;;;5033828;28;20946;-56
2021/09/01 01:17:08;;;;;;;4.13;3.70;;;13.20;99.90;;;;;;5033894;28;20938;-57
2021/09/01 01:19:39;;;;;;;6.00;4.70;;;13.20;99.90;;;;;;5033112;28;20479;-57
2021/09/01 01:22:07;;;;;;;5.17;4.20;;;13.20;99.90;;;;;;5033681;28;20487;-57
2021/09/01 01:24:46;;;;;;;4.33;3.93;;;13.20;99.90;;;;;;5033712;28;21242;-56
2021/09/01 01:27:23;;;;;;;5.30;3.90;;;13.20;99.90;;;;;;5033654;28;20448;-57
2021/09/01 01:29:51;;;;;;;5.37;4.33;;;13.20;99.90;;;;;;5033445;28;20491;-56
2021/09/01 01:32:18;;;;;;;4.83;3.80;;;13.10;99.90;;;;;;5033228;28;20480;-56
2021/09/01 01:34:45;;;;;;;5.40;4.37;;;13.00;99.90;;;;;;5033591;28;20965;-58
2021/09/01 01:37:12;;;;;;;4.03;3.63;;;13.00;99.90;;;;;;5033336;28;20457;-57
2021/09/01 01:39:39;;;;;;;6.63;4.53;;;13.00;99.90;;;;;;5033574;28;20448;-57
2021/09/01 01:42:07;;;;;;;4.40;3.70;;;12.90;99.90;;;;;;5032890;28;20611;-56
2021/09/01 01:44:35;;;;;;;5.40;4.20;;;12.90;99.90;;;;;;5033294;28;20481;-56
2021/09/01 01:47:04;;;;;;;5.60;4.40;;;12.90;99.90;;;;;;5033383;28;20448;-57
2021/09/01 01:49:31;;;;;;;6.13;4.63;;;12.70;99.90;;;;;;5032993;28;20488;-56
2021/09/01 01:51:58;;;;;;;5.90;4.40;;;12.60;99.90;;;;;;5032736;28;20465;-56
2021/09/01 01:54:25;;;;;;;6.97;4.73;;;12.60;99.90;;;;;;5033222;28;20472;-55
2021/09/01 01:56:52;;;;;;;4.50;3.60;;;12.60;99.90;;;;;;5032860;28;20506;-57
2021/09/01 01:59:19;;;;;;;4.27;3.73;;;12.60;99.90;;;;;;5033401;28;20886;-57
2021/09/01 02:01:48;;;;;;;5.80;4.13;;;12.60;99.90;;;;;;5032224;28;20445;-56
2021/09/01 02:04:15;;;;;;;6.33;4.80;;;12.70;99.90;;;;;;5032777;28;20930;-56
2021/09/01 02:06:42;;;;;;;6.20;3.60;;;12.50;99.90;;;;;;5033130;28;20479;-56
2021/09/01 02:09:09;;;;;;;5.27;4.47;;;12.60;99.90;;;;;;5032865;28;20452;-56
2021/09/01 02:11:37;;;;;;;4.30;3.90;;;12.60;99.90;;;;;;5032250;28;20946;-57
2021/09/01 02:14:04;;;;;;;5.60;3.97;;;12.60;99.90;;;;;;5032966;28;20468;-59
2021/09/01 02:16:31;;;;;;;4.83;4.13;;;12.50;99.90;;;;;;5033151;28;20518;-56
2021/09/01 02:18:59;;;;;;;5.70;3.87;;;12.60;99.90;;;;;;5032931;28;20867;-58
2021/09/01 02:21:26;;;;;;;6.03;4.33;;;12.60;99.90;;;;;;5032028;28;20506;-57
2021/09/01 02:23:53;;;;;;;6.23;4.37;;;12.50;99.90;;;;;;5032346;28;20484;-56
2021/09/01 02:26:20;;;;;;;3.90;3.50;;;12.40;99.90;;;;;;5032780;28;20874;-57
2021/09/01 02:28:47;;;;;;;5.97;4.13;;;12.40;99.90;;;;;;5032780;28;20502;-56
2021/09/01 02:31:14;;;;;;;6.17;4.60;;;12.40;99.90;;;;;;5032423;28;20502;-57
2021/09/01 02:33:41;;;;;;;5.77;4.40;;;12.50;99.90;;;;;;5032431;28;20510;-57
2021/09/01 02:36:09;;;;;;;5.30;4.10;;;12.40;99.90;;;;;;5031796;28;20482;-57
2021/09/01 02:38:39;;;;;;;5.90;3.67;;;12.40;99.90;;;;;;5032539;28;20942;-57
2021/09/01 02:41:06;;;;;;;4.87;3.80;;;12.40;99.90;;;;;;5031947;28;20457;-56
2021/09/01 02:43:33;;;;;;;4.87;4.13;;;12.40;99.90;;;;;;5032160;28;20480;-57
2021/09/01 02:46:00;;;;;;;6.30;4.70;;;12.40;99.90;;;;;;5032319;28;20488;-56
2021/09/01 02:48:27;;;;;;;9.30;4.83;;;12.20;99.90;;;;;;5032343;28;20460;-57
2021/09/01 02:50:54;;;;;;;6.30;4.13;;;12.00;99.90;;;;;;5031611;28;20445;-56
2021/09/01 02:53:23;;;;;;;4.40;4.00;;;12.10;99.90;;;;;;5032032;28;20886;-57
2021/09/01 02:55:50;;;;;;;4.77;4.03;;;12.20;99.90;;;;;;5032066;28;20451;-56
2021/09/01 02:58:17;;;;;;;4.60;4.00;;;12.20;99.90;;;;;;5032134;28;20519;-57
2021/09/01 03:00:44;;;;;;;4.90;3.67;;;12.20;99.90;;;;;;5031241;28;20456;-56
2021/09/01 03:03:11;;;;;;;6.47;4.73;;;12.20;99.90;;;;;;5031507;28;20476;-57
2021/09/01 03:05:38;;;;;;;5.07;3.93;;;12.20;99.90;;;;;;5031780;28;20488;-56
2021/09/01 03:08:06;;;;;;;9.83;4.73;;;12.10;99.90;;;;;;5028860;28;20503;-58
2021/09/01 03:10:35;;;;;;;6.53;4.50;;;12.00;99.90;;;;;;5030272;28;20498;-56
2021/09/01 03:13:02;;;;;;;7.33;5.10;;;12.10;99.90;;;;;;5030351;28;20539;-56
2021/09/01 03:15:29;;;;;;;7.47;5.67;;;12.00;99.90;;;;;;5030618;28;20445;-57
2021/09/01 03:17:56;;;;;;;7.97;6.13;;;12.00;99.90;;;;;;5030374;28;20502;-56
2021/09/01 03:20:23;;;;;;;16.10;7.50;;;12.00;99.90;;;;;;5030113;28;20844;-57
2021/09/01 03:22:51;;;;;;;9.83;8.00;;;12.00;99.90;;;;;;5030115;28;20483;-56
2021/09/01 03:25:18;;;;;;;7.57;6.03;;;12.00;99.90;;;;;;5048183;23;20456;-54
2021/09/01 03:27:46;;;;;;;11.80;6.77;;;11.90;99.90;;;;;;4994830;28;20446;-53
2021/09/01 03:30:13;;;;;;;11.03;6.23;;;11.90;99.90;;;;;;4998483;28;20446;-53
2021/09/01 03:32:40;;;;;;;9.87;6.80;;;11.90;99.90;;;;;;5010153;28;20457;-54
2021/09/01 03:35:09;;;;;;;9.00;6.03;;;11.90;99.90;;;;;;4994833;28;20991;-53
2021/09/01 03:37:36;;;;;;;6.83;5.40;;;11.90;99.90;;;;;;4991621;28;20453;-54
2021/09/01 03:40:06;;;;;;;8.93;6.83;;;12.00;99.90;;;;;;4991486;28;20505;-54
2021/09/01 03:42:33;;;;;;;11.20;5.77;;;12.00;99.90;;;;;;4991797;28;20442;-54
2021/09/01 03:45:04;;;;;;;7.87;5.17;;;11.90;99.90;;;;;;4991504;28;21158;-53
2021/09/01 03:47:31;;;;;;;7.90;5.43;;;11.80;99.90;;;;;;5005074;28;20943;-53
2021/09/01 03:49:59;;;;;;;9.93;5.17;;;11.70;99.90;;;;;;5009921;28;20461;-53
2021/09/01 03:52:26;;;;;;;6.80;4.80;;;11.50;99.90;;;;;;4998998;28;20446;-53
2021/09/01 03:54:53;;;;;;;6.20;5.10;;;11.60;99.90;;;;;;4991522;28;20445;-54
2021/09/01 03:57:19;;;;;;;5.33;4.33;;;11.60;99.90;;;;;;4991637;28;20524;-54
2021/09/01 03:59:46;;;;;;;7.10;4.93;;;11.70;99.90;;;;;;4991688;28;20442;-54
2021/09/01 04:02:15;;;;;;;9.90;5.27;;;11.70;99.90;;;;;;4991362;28;20450;-54
2021/09/01 04:04:42;;;;;;;7.53;5.70;;;11.70;99.90;;;;;;4991402;28;21112;-53
2021/09/01 04:07:09;;;;;;;7.80;5.63;;;11.60;99.90;;;;;;4990765;28;21049;-53
2021/09/01 04:09:36;;;;;;;5.87;4.40;;;11.60;99.90;;;;;;4991811;28;20450;-53
2021/09/01 04:12:04;;;;;;;8.00;5.40;;;11.70;99.90;;;;;;4991223;28;20450;-53
2021/09/01 04:14:31;;;;;;;6.40;5.00;;;11.60;99.90;;;;;;4995542;28;20929;-53
2021/09/01 04:16:58;;;;;;;5.90;4.83;;;11.70;99.90;;;;;;4995387;28;20470;-54
2021/09/01 04:19:26;;;;;;;9.00;4.60;;;11.70;99.90;;;;;;4995289;28;20497;-54
2021/09/01 04:21:53;;;;;;;5.63;4.63;;;11.80;99.90;;;;;;4995138;28;20506;-54
2021/09/01 04:24:20;;;;;;;5.37;4.33;;;11.80;99.90;;;;;;4995356;28;21748;-53
2021/09/01 04:26:47;;;;;;;7.40;4.40;;;11.70;99.90;;;;;;4995089;28;21065;-54
2021/09/01 04:29:14;;;;;;;5.67;4.30;;;11.70;99.90;;;;;;4995136;28;20450;-54
2021/09/01 04:31:41;;;;;;;5.80;4.53;;;11.70;99.90;;;;;;5000828;28;20509;-54
2021/09/01 04:34:08;;;;;;;5.50;3.87;;;11.80;99.90;;;;;;4994341;28;20447;-53
2021/09/01 04:36:36;;;;;;;6.63;3.93;;;11.80;99.90;;;;;;4995008;28;20466;-54
2021/09/01 04:39:03;;;;;;;5.13;4.03;;;11.80;99.90;;;;;;4994428;28;20504;-53
2021/09/01 04:41:30;;;;;;;7.10;4.43;;;11.80;99.90;;;;;;4993637;28;20987;-54
2021/09/01 04:43:57;;;;;;;7.03;4.50;;;11.80;99.90;;;;;;4995084;28;20948;-53
2021/09/01 04:46:24;;;;;;;5.50;3.97;;;11.70;99.90;;;;;;5003114;28;20485;-54
2021/09/01 04:48:51;;;;;;;6.57;4.90;;;11.70;99.90;;;;;;4995714;28;20861;-53
2021/09/01 04:51:19;;;;;;;7.77;4.43;;;11.80;99.90;;;;;;4995168;28;20939;-54
2021/09/01 04:53:47;;;;;;;5.50;4.37;;;11.80;99.90;;;;;;4995625;28;20489;-54
2021/09/01 04:56:15;;;;;;;6.00;4.33;;;11.80;99.90;;;;;;4996930;28;20477;-53
2021/09/01 04:58:42;;;;;;;4.73;4.03;;;11.80;99.90;;;;;;5004197;28;20464;-54
2021/09/01 05:01:09;;;;;;;5.30;4.40;;;11.80;99.90;;;;;;4994801;28;20454;-54
2021/09/01 05:03:36;;;;;;;6.10;4.40;;;11.80;99.90;;;;;;4996740;28;20454;-54
2021/09/01 05:06:03;;;;;;;7.47;4.40;;;11.80;99.90;;;;;;4995306;28;20548;-53
2021/09/01 05:08:30;;;;;;;8.60;4.23;;;11.80;99.90;;;;;;5001372;28;20506;-54
2021/09/01 05:10:58;;;;;;;4.93;4.20;;;11.90;99.90;;;;;;4995353;28;20458;-54
2021/09/01 05:13:25;;;;;;;8.50;4.80;;;11.90;99.90;;;;;;5001019;28;20450;-53
2021/09/01 05:15:52;;;;;;;6.07;5.13;;;11.90;99.90;;;;;;4997931;28;20473;-54
2021/09/01 05:18:19;;;;;;;11.83;6.30;;;11.90;99.90;;;;;;4996551;28;20512;-54
2021/09/01 05:20:48;;;;;;;8.60;6.47;;;11.90;99.90;;;;;;5003771;28;20501;-54
2021/09/01 05:23:17;;;;;;;9.93;6.23;;;11.80;99.90;;;;;;4994197;28;20517;-54
2021/09/01 05:25:53;;;;;;;9.93;6.40;;;11.90;99.90;;;;;;4993040;28;20486;-54
2021/09/01 05:28:26;;;;;;;13.67;7.50;;;11.90;99.90;;;;;;4994930;28;20450;-54
2021/09/01 05:30:53;;;;;;;7.87;6.40;;;12.00;99.90;;;;;;4991788;28;20505;-54
2021/09/01 05:33:21;;;;;;;8.73;6.47;;;12.20;99.90;;;;;;4993976;28;20458;-54
2021/09/01 05:35:50;;;;;;;7.20;5.27;;;12.30;99.90;;;;;;4994503;28;20513;-54
2021/09/01 05:38:18;;;;;;;6.67;4.80;;;12.40;99.90;;;;;;4995348;28;20447;-54
2021/09/01 05:40:47;;;;;;;7.33;5.03;;;12.90;99.90;;;;;;5002413;28;20975;-54
2021/09/01 05:43:15;;;;;;;6.20;5.00;;;13.80;99.90;;;;;;4996567;28;20504;-53
2021/09/01 05:45:45;;;;;;;5.77;4.80;;;14.80;99.90;;;;;;4992193;28;20482;-54
2021/09/01 05:48:13;;;;;;;6.90;4.90;;;15.70;99.90;;;;;;4993146;28;21005;-54
2021/09/01 05:50:42;;;;;;;5.80;4.47;;;16.50;99.90;;;;;;4991954;28;20458;-54
2021/09/01 05:53:10;;;;;;;5.43;4.40;;;17.20;99.90;;;;;;4993281;28;20550;-54
2021/09/01 05:55:43;;;;;;;4.77;4.03;;;17.90;99.90;;;;;;4998984;28;20470;-54
2021/09/01 05:58:12;;;;;;;5.77;4.60;;;18.40;99.90;;;;;;4990561;28;20447;-55
2021/09/01 06:00:41;;;;;;;5.33;4.00;;;18.70;99.90;;;;;;5011823;28;20458;-54
2021/09/01 06:03:17;;;;;;;6.37;3.63;;;19.10;99.90;;;;;;5011864;28;20508;-55
2021/09/01 06:05:45;;;;;;;5.53;3.53;;;19.60;99.90;;;;;;5011695;28;20489;-54
2021/09/01 06:08:13;;;;;;;5.63;3.50;;;19.70;99.90;;;;;;5011590;28;20508;-54
2021/09/01 06:10:41;;;;;;;3.90;3.50;;;20.20;99.90;;;;;;5011010;28;20474;-54
2021/09/01 06:13:10;;;;;;;4.40;2.80;;;20.40;99.90;;;;;;5011817;28;20497;-55
2021/09/01 06:15:39;;;;;;;4.23;3.10;;;20.60;99.90;;;;;;5011287;28;20462;-55
2021/09/01 06:18:07;;;;;;;5.83;3.30;;;20.80;99.90;;;;;;5011577;28;20939;-55
2021/09/01 06:20:36;;;;;;;4.00;3.00;;;20.80;99.90;;;;;;5011413;28;20445;-55
2021/09/01 06:23:03;;;;;;;5.03;3.17;;;21.10;99.90;;;;;;5011520;28;20441;-55
2021/09/01 06:25:30;;;;;;;3.87;3.40;;;21.80;99.90;;;;;;4989212;28;20490;-55
2021/09/01 06:27:58;;;;;;;4.10;3.00;;;22.40;99.90;;;;;;4993061;28;20442;-55
2021/09/01 06:30:25;;;;;;;3.33;3.00;;;22.60;99.90;;;;;;4992946;28;20536;-54
2021/09/01 06:32:52;;;;;;;4.10;3.70;;;22.50;99.90;;;;;;4992930;28;21006;-55
2021/09/01 06:35:20;;;;;;;7.90;3.30;;;22.70;99.90;;;;;;4992540;28;20554;-55
2021/09/01 06:37:49;;;;;;;7.03;3.50;;;22.80;99.90;;;;;;4992133;28;20446;-55
2021/09/01 06:40:18;;;;;;;3.43;3.13;;;23.10;99.90;;;;;;4992563;28;20450;-55
2021/09/01 06:42:45;;;;;;;2.90;2.70;;;22.80;99.90;;;;;;4992723;28;20951;-55
2021/09/01 06:45:13;;;;;;;3.27;2.97;;;22.80;99.90;;;;;;4992631;28;20450;-56
2021/09/01 06:47:42;;;;;;;3.97;3.50;;;22.80;99.90;;;;;;5010702;28;21160;-56
2021/09/01 06:50:13;;;;;;;3.17;2.87;;;22.90;99.90;;;;;;5010543;28;20446;-55
2021/09/01 06:52:40;;;;;;;3.83;3.27;;;22.90;99.90;;;;;;5010738;28;20464;-55
2021/09/01 06:55:10;;;;;;;2.90;2.63;;;23.20;99.90;;;;;;5010481;28;20512;-55
2021/09/01 06:57:37;;;;;;;4.63;3.03;;;23.50;99.90;;;;;;5007493;28;20525;-55
2021/09/01 07:00:05;;;;;;;4.40;3.17;;;23.60;99.90;;;;;;4992514;28;20450;-56
2021/09/01 07:02:32;;;;;;;3.17;2.97;;;23.30;99.90;;;;;;4992296;28;21007;-56
2021/09/01 07:04:59;;;;;;;4.17;3.47;;;23.30;99.90;;;;;;4992270;28;20500;-56
2021/09/01 07:07:26;;;;;;;3.43;3.00;;;23.60;99.90;;;;;;4992073;28;20919;-55
2021/09/01 07:09:53;;;;;;;5.50;3.37;;;23.80;99.90;;;;;;4991796;28;20450;-55
2021/09/01 07:12:22;;;;;;;3.00;2.80;;;23.90;99.90;;;;;;4992417;28;20447;-56
2021/09/01 07:14:49;;;;;;;4.37;3.27;;;24.00;99.90;;;;;;4991910;28;20451;-56
2021/09/01 07:17:16;;;;;;;2.80;2.60;;;24.40;99.90;;;;;;4991694;28;20517;-56
2021/09/01 07:19:43;;;;;;;2.70;2.50;;;24.90;99.90;;;;;;4992364;28;20595;-56
2021/09/01 07:22:11;;;;;;;4.50;2.80;;;25.30;99.90;;;;;;4991985;28;20525;-55
2021/09/01 07:24:38;;;;;;;3.03;2.83;;;25.40;99.90;;;;;;4992789;28;20455;-55
2021/09/01 07:27:05;;;;;;;3.40;3.10;;;25.40;99.90;;;;;;4992620;28;20494;-56
2021/09/01 07:29:34;;;;;;;3.67;2.70;;;24.70;99.90;;;;;;4992058;28;20451;-55
2021/09/01 07:32:01;;;;;;;3.40;2.40;;;25.20;99.90;;;;;;4992206;28;20537;-55
2021/09/01 07:34:28;;;;;;;2.90;2.70;;;25.40;99.90;;;;;;4992675;28;20508;-56
2021/09/01 07:36:54;;;;;;;2.40;2.30;;;25.50;99.90;;;;;;4992093;28;20528;-56
2021/09/01 07:39:23;;;;;;;2.80;2.60;;;25.70;99.90;;;;;;4992778;28;20459;-56
2021/09/01 07:41:51;;;;;;;3.30;2.70;;;25.90;99.90;;;;;;4991825;28;20451;-56
2021/09/01 07:44:17;;;;;;;3.10;2.80;;;26.20;99.90;;;;;;4991712;28;20458;-55
2021/09/01 07:46:46;;;;;;;2.90;2.33;;;26.00;99.90;;;;;;4991814;28;20482;-55
2021/09/01 07:49:13;;;;;;;5.03;2.57;;;25.10;99.90;;;;;;4992160;28;20442;-55
2021/09/01 07:51:40;;;;;;;2.47;2.30;;;25.00;99.90;;;;;;4992694;28;20442;-55
2021/09/01 07:54:07;;;;;;;3.07;2.77;;;24.70;99.90;;;;;;4992720;28;20450;-55
2021/09/01 07:56:34;;;;;;;3.30;2.57;;;25.20;99.90;;;;;;4991464;28;20529;-55
2021/09/01 07:59:01;;;;;;;5.70;2.50;;;23.40;99.90;;;;;;4992232;28;20504;-55
2021/09/01 08:01:28;;;;;;;3.40;3.03;;;22.10;99.90;;;;;;4991968;28;20493;-55
2021/09/01 08:03:56;;;;;;;3.80;2.77;;;21.70;99.90;;;;;;4992243;28;20546;-55
2021/09/01 08:06:23;;;;;;;2.87;2.67;;;21.50;99.90;;;;;;4992217;28;20537;-56
2021/09/01 08:08:51;;;;;;;3.30;2.20;;;22.30;99.90;;;;;;4992297;28;20880;-56
2021/09/01 08:11:18;;;;;;;2.60;2.40;;;23.30;99.90;;;;;;4992210;28;20454;-56
2021/09/01 08:13:45;;;;;;;2.60;2.40;;;24.40;99.90;;;;;;4991997;28;20521;-55
2021/09/01 08:16:12;;;;;;;3.03;2.20;;;25.10;99.90;;;;;;4992211;28;20466;-55
2021/09/01 08:18:39;;;;;;;2.90;2.63;;;24.90;99.90;;;;;;4992084;28;20505;-55
2021/09/01 08:21:07;;;;;;;3.53;2.50;;;25.40;99.90;;;;;;4991936;28;20505;-55
2021/09/01 08:23:34;;;;;;;3.20;2.70;;;25.30;99.90;;;;;;4991867;28;20508;-54
2021/09/01 08:26:01;;;;;;;5.40;2.43;;;25.00;99.90;;;;;;4991591;28;20541;-55
2021/09/01 08:28:28;;;;;;;2.80;2.60;;;25.30;99.90;;;;;;4991927;28;20454;-55
2021/09/01 08:30:55;;;;;;;3.17;2.40;;;25.70;99.90;;;;;;4991890;28;20442;-55
2021/09/01 08:33:22;;;;;;;2.70;2.50;;;25.90;99.90;;;;;;4992119;28;20952;-56
2021/09/01 08:35:49;;;;;;;3.37;2.47;;;26.20;99.90;;;;;;4991408;28;20896;-55
2021/09/01 08:38:17;;;;;;;2.80;2.60;;;25.90;99.90;;;;;;4992137;28;20454;-56
2021/09/01 08:40:47;;;;;;;3.03;2.83;;;25.10;99.90;;;;;;4991896;28;20504;-55
2021/09/01 08:43:14;;;;;;;2.43;2.20;;;23.70;99.90;;;;;;4991292;28;20455;-55
2021/09/01 08:45:41;;;;;;;3.10;2.80;;;23.80;99.90;;;;;;4991131;28;20478;-55
2021/09/01 08:48:08;;;;;;;2.57;2.37;;;24.50;99.90;;;;;;4992012;28;20450;-56
2021/09/01 08:50:35;;;;;;;2.70;2.40;;;24.90;99.90;;;;;;4991623;28;20450;-55
2021/09/01 08:53:02;;;;;;;3.13;2.80;;;25.70;99.90;;;;;;4992038;28;20466;-55
2021/09/01 08:55:30;;;;;;;2.80;2.60;;;25.90;99.90;;;;;;4991560;28;21263;-56
2021/09/01 08:57:57;;;;;;;4.23;3.03;;;25.60;99.90;;;;;;4991481;28;20450;-55
2021/09/01 09:00:24;;;;;;;2.70;2.50;;;23.90;99.90;;;;;;4993255;28;20497;-55
2021/09/01 09:02:56;;;;;;;2.73;2.53;;;23.00;99.90;;;;;;4995386;28;20458;-54
2021/09/01 09:05:34;;;;;;;3.13;2.83;;;23.00;99.90;;;;;;4994289;28;20502;-55
2021/09/01 09:08:01;;;;;;;2.30;2.17;;;24.10;99.90;;;;;;4995020;28;21015;-55
2021/09/01 09:10:33;;;;;;;6.77;2.60;;;24.20;99.90;;;;;;4995084;28;20455;-55
2021/09/01 09:13:02;;;;;;;4.07;2.50;;;23.80;99.90;;;;;;4995122;28;20516;-56
2021/09/01 09:15:30;;;;;;;2.80;2.60;;;23.70;99.90;;;;;;4995143;28;20613;-56
2021/09/01 09:17:57;;;;;;;2.60;2.33;;;23.40;99.90;;;;;;4994336;28;20454;-55
2021/09/01 09:20:30;;;;;;;2.50;2.30;;;23.50;99.90;;;;;;4994849;28;20450;-55
2021/09/01 09:22:58;;;;;;;2.80;2.60;;;24.60;99.90;;;;;;4994942;28;20995;-55
2021/09/01 09:25:31;;;;;;;5.20;2.60;;;24.60;99.90;;;;;;5018698;23;20558;-58
2021/09/01 09:28:00;;;;;;;2.47;2.30;;;25.30;99.90;;;;;;4993473;28;20490;-59
2021/09/01 09:30:39;;;;;;;2.60;2.40;;;24.40;99.90;;;;;;4993037;28;20458;-57
2021/09/01 09:33:12;;;;;;;2.57;2.37;;;24.30;99.90;;;;;;4993990;28;20446;-60
2021/09/01 09:35:55;;;;;;;3.00;2.80;;;24.80;99.90;;;;;;4995798;28;20470;-58
2021/09/01 09:38:39;;;;;;;3.20;2.90;;;25.00;99.90;;;;;;5012194;28;20891;-58
2021/09/01 09:41:08;;;;;;;3.40;3.13;;;24.40;99.90;;;;;;5013634;28;20449;-57
2021/09/01 09:43:36;;;;;;;3.10;2.73;;;24.40;99.90;;;;;;5013599;28;20450;-58
2021/09/01 09:46:07;;;;;;;3.00;2.70;;;23.50;99.90;;;;;;5013340;28;20936;-58
2021/09/01 09:48:36;;;;;;;3.13;2.93;;;23.70;99.90;;;;;;5012002;28;20461;-58
2021/09/01 09:51:05;;;;;;;3.87;3.13;;;24.30;99.90;;;;;;5009228;28;20485;-57
2021/09/01 09:53:35;;;;;;;3.00;2.70;;;24.30;99.90;;;;;;5012400;28;20592;-58
2021/09/01 09:56:07;;;;;;;3.20;2.90;;;24.20;99.90;;;;;;5012397;28;20473;-59
2021/09/01 09:58:37;;;;;;;3.50;3.20;;;24.10;99.90;;;;;;5012436;28;20453;-55
2021/09/01 10:01:06;;;;;;;3.00;2.80;;;24.50;99.90;;;;;;5011681;28;20495;-56
2021/09/01 10:03:35;;;;;;;3.20;2.90;;;24.70;99.90;;;;;;5012460;28;20962;-55
2021/09/01 10:06:03;;;;;;;3.47;3.17;;;23.80;99.90;;;;;;5008663;28;20544;-56
2021/09/01 10:08:31;;;;;;;3.40;3.10;;;24.20;99.90;;;;;;5010514;28;20498;-56
2021/09/01 10:11:01;;;;;;;3.50;3.20;;;24.60;99.90;;;;;;5011854;28;20525;-56
2021/09/01 10:13:28;;;;;;;2.77;2.57;;;24.40;99.90;;;;;;5011946;28;20495;-56
2021/09/01 10:16:02;;;;;;;3.30;3.00;;;24.20;99.90;;;;;;5012092;28;20465;-56
2021/09/01 10:18:32;;;;;;;3.00;2.80;;;24.70;99.90;;;;;;5012127;28;21013;-56
2021/09/01 10:20:59;;;;;;;3.83;3.43;;;24.60;99.90;;;;;;5008001;28;20532;-55
2021/09/01 10:23:43;;;;;;;3.00;2.80;;;23.60;99.90;;;;;;5012078;28;20943;-55
2021/09/01 10:26:25;;;;;;;3.57;3.23;;;23.30;99.90;;;;;;5007898;28;20477;-55
2021/09/01 10:28:53;;;;;;;3.80;3.50;;;22.80;99.90;;;;;;5012137;28;20449;-56
2021/09/01 10:31:32;;;;;;;4.03;3.60;;;23.40;99.90;;;;;;5007921;28;20449;-55
2021/09/01 10:34:04;;;;;;;3.63;3.33;;;23.40;99.90;;;;;;5011982;28;20441;-55
2021/09/01 10:36:58;;;;;;;3.70;3.40;;;23.80;99.90;;;;;;5011639;28;20462;-55
2021/09/01 10:39:46;;;;;;;4.47;3.47;;;24.00;99.90;;;;;;5011882;28;20455;-56
2021/09/01 10:42:37;;;;;;;4.17;3.77;;;23.60;99.90;;;;;;5008062;28;20955;-56
2021/09/01 10:45:18;;;;;;;3.80;3.50;;;23.40;99.90;;;;;;5011395;28;20945;-56
2021/09/01 10:48:08;;;;;;;3.87;3.50;;;23.70;99.90;;;;;;5011508;28;20485;-55
2021/09/01 10:50:37;;;;;;;3.43;3.23;;;23.50;99.90;;;;;;4993097;28;20454;-55
2021/09/01 10:53:09;;;;;;;4.40;3.60;;;22.80;99.90;;;;;;4993139;28;20454;-55
2021/09/01 10:55:49;;;;;;;3.57;3.27;;;22.20;99.90;;;;;;4993308;28;20458;-55
2021/09/01 10:58:18;;;;;;;3.50;3.20;;;22.70;99.90;;;;;;4993263;28;20497;-57
2021/09/01 11:00:51;;;;;;;3.93;3.50;;;22.80;99.90;;;;;;5001026;28;20457;-57
2021/09/01 11:03:31;;;;;;;3.57;3.27;;;22.40;99.90;;;;;;5011410;28;20449;-57
2021/09/01 11:06:13;;;;;;;3.80;3.50;;;22.60;99.90;;;;;;5011387;28;20524;-58
2021/09/01 11:09:08;;;;;;;4.93;3.70;;;22.60;99.90;;;;;;5010828;28;20839;-57
2021/09/01 11:11:43;;;;;;;3.47;3.17;;;23.00;99.90;;;;;;5011801;28;20939;-58
2021/09/01 11:14:12;;;;;;;3.53;3.23;;;22.80;99.90;;;;;;5012088;28;20440;-57
2021/09/01 11:16:39;;;;;;;4.87;3.43;;;22.50;99.90;;;;;;5012002;28;20993;-56
2021/09/01 11:19:09;;;;;;;3.70;3.40;;;22.10;99.90;;;;;;5012195;28;20499;-59
2021/09/01 11:21:42;;;;;;;3.80;3.20;;;22.20;99.90;;;;;;5011756;28;20446;-57
2021/09/01 11:24:10;;;;;;;4.37;3.77;;;22.30;99.90;;;;;;5011667;28;20446;-56
2021/09/01 11:26:38;;;;;;;4.87;3.63;;;22.40;99.90;;;;;;5011688;28;20485;-57
2021/09/01 11:29:09;;;;;;;4.17;3.77;;;22.00;99.90;;;;;;5012116;28;20457;-57
2021/09/01 11:31:42;;;;;;;4.30;3.90;;;21.70;99.90;;;;;;5011952;28;20450;-56
2021/09/01 11:34:12;;;;;;;3.97;3.57;;;21.90;99.90;;;;;;5012124;28;20453;-57
2021/09/01 11:36:40;;;;;;;3.80;3.40;;;22.00;99.90;;;;;;5010759;28;20520;-57
2021/09/01 11:39:08;;;;;;;4.30;3.70;;;22.20;99.90;;;;;;5011191;28;20453;-57
2021/09/01 11:41:35;;;;;;;4.07;3.63;;;22.20;99.90;;;;;;5010816;28;20453;-57
2021/09/01 11:44:04;;;;;;;3.83;3.47;;;22.10;99.90;;;;;;5011694;28;20454;-57
2021/09/01 11:46:34;;;;;;;4.10;3.70;;;21.90;99.90;;;;;;5011215;28;20896;-56
2021/09/01 11:49:06;;;;;;;4.20;3.80;;;21.80;99.90;;;;;;5011597;28;20433;-57
2021/09/01 11:51:36;;;;;;;3.93;3.53;;;21.70;99.90;;;;;;5011111;28;20445;-56
2021/09/01 11:54:04;;;;;;;3.40;3.10;;;21.80;99.90;;;;;;5011068;28;20445;-56
2021/09/01 11:56:31;;;;;;;3.60;3.23;;;21.90;99.90;;;;;;5011285;28;20850;-57
2021/09/01 11:59:00;;;;;;;4.20;3.80;;;21.70;99.90;;;;;;5011119;28;20441;-57
2021/09/01 12:01:28;;;;;;;4.90;3.53;;;21.70;99.90;;;;;;5010907;28;20489;-57
2021/09/01 12:03:57;;;;;;;3.50;3.10;;;21.80;99.90;;;;;;5011547;28;20499;-57
2021/09/01 12:06:39;;;;;;;5.23;3.20;;;22.00;99.90;;;;;;5010953;28;20469;-57
2021/09/01 12:09:08;;;;;;;3.37;3.07;;;22.00;99.90;;;;;;5011397;28;21006;-58
2021/09/01 12:11:35;;;;;;;3.70;3.23;;;22.10;99.90;;;;;;5010196;28;20453;-57
2021/09/01 12:14:05;;;;;;;2.90;2.70;;;21.70;99.90;;;;;;5011095;28;20453;-57
2021/09/01 12:16:32;;;;;;;3.50;3.20;;;21.60;99.90;;;;;;5010163;28;20990;-57
2021/09/01 12:19:04;;;;;;;3.80;3.40;;;21.40;99.90;;;;;;5011418;28;20499;-56
2021/09/01 12:22:03;;;;;;;3.07;2.77;;;21.40;99.90;;;;;;5011206;28;20449;-57
2021/09/01 12:24:35;;;;;;;3.30;3.00;;;21.70;99.90;;;;;;4987597;28;20526;-57
2021/09/01 12:27:07;;;;;;;3.90;3.10;;;21.80;99.90;;;;;;5006509;28;20489;-57
2021/09/01 12:29:40;;;;;;;4.23;3.10;;;22.10;99.90;;;;;;5010970;28;20507;-57
2021/09/01 12:32:10;;;;;;;3.80;3.03;;;22.20;99.90;;;;;;5011510;28;20461;-57
2021/09/01 12:34:40;;;;;;;3.07;2.77;;;22.20;99.90;;;;;;5013590;28;20461;-57
2021/09/01 12:37:11;;;;;;;5.07;3.20;;;22.30;99.90;;;;;;5014772;28;20477;-57
2021/09/01 12:39:44;;;;;;;3.53;3.23;;;22.20;99.90;;;;;;5015498;28;20884;-57
2021/09/01 12:42:37;;;;;;;3.23;2.93;;;22.20;99.90;;;;;;5014924;28;20453;-57
2021/09/01 12:45:07;;;;;;;4.90;3.77;;;22.00;99.90;;;;;;5000431;28;20449;-57
2021/09/01 12:47:35;;;;;;;3.47;3.17;;;22.10;99.90;;;;;;5011528;28;20477;-57
2021/09/01 12:50:05;;;;;;;3.60;3.30;;;22.00;99.90;;;;;;5015382;28;20453;-57
2021/09/01 12:52:34;;;;;;;2.93;2.73;;;22.10;99.90;;;;;;5015154;28;20449;-58
2021/09/01 12:55:05;;;;;;;3.60;3.03;;;21.90;99.90;;;;;;5014652;28;20458;-58